sensor_id;sensor_type;location;lat;lon;timestamp;pressure;altitude;pressure_sealevel;temperature;humidity
51333;BME280;37417;48.118;11.734;2023-05-24T00:00:39;95665.50;;;10.62;100.00
51333;BME280;37417;48.118;11.734;2023-05-24T00:03:25;95662.66;;;10.85;100.00
51333;BME280;37417;48.118;11.734;2023-05-24T00:06:11;95658.09;;;11.00;100.00
51333;BME280;37417;48.118;11.734;2023-05-24T00:08:56;95653.38;;;11.17;100.00
51333;BME280;37417;48.118;11.734;2023-05-24T00:11:42;95652.63;;;11.23;100.00
51333;BME280;37417;48.118;11.734;2023-05-24T00:14:27;95639.38;;;11.31;100.00
51333;BME280;37417;48.118;11.734;2023-05-24T00:17:13;95636.78;;;11.31;100.00
51333;BME280;37417;48.118;11.734;2023-05-24T00:19:59;95627.94;;;11.32;100.00
51333;BME280;37417;48.118;11.734;2023-05-24T00:22:45;95625.78;;;11.43;100.00
51333;BME280;37417;48.118;11.734;2023-05-24T00:25:30;95622.13;;;11.37;100.00
51333;BME280;37417;48.118;11.734;2023-05-24T00:28:16;95616.16;;;11.50;100.00
51333;BME280;37417;48.118;11.734;2023-05-24T00:31:02;95611.47;;;11.38;100.00
51333;BME280;37417;48.118;11.734;2023-05-24T00:33:47;95606.47;;;11.44;100.00
51333;BME280;37417;48.118;11.734;2023-05-24T00:36:33;95608.06;;;11.38;100.00
51333;BME280;37417;48.118;11.734;2023-05-24T00:39:19;95607.44;;;11.29;100.00
51333;BME280;37417;48.118;11.734;2023-05-24T00:42:05;95607.22;;;11.24;100.00
51333;BME280;37417;48.118;11.734;2023-05-24T00:44:50;95608.44;;;11.28;100.00
51333;BME280;37417;48.118;11.734;2023-05-24T00:47:36;95601.81;;;11.32;100.00
51333;BME280;37417;48.118;11.734;2023-05-24T00:50:22;95598.59;;;11.30;100.00
51333;BME280;37417;48.118;11.734;2023-05-24T00:53:08;95600.00;;;11.26;100.00
51333;BME280;37417;48.118;11.734;2023-05-24T00:55:54;95604.41;;;11.26;100.00
51333;BME280;37417;48.118;11.734;2023-05-24T00:58:40;95606.22;;;11.32;100.00
51333;BME280;37417;48.118;11.734;2023-05-24T01:01:26;95601.66;;;11.41;100.00
51333;BME280;37417;48.118;11.734;2023-05-24T01:04:15;95593.78;;;11.27;100.00
51333;BME280;37417;48.118;11.734;2023-05-24T01:13:52;95596.59;;;11.32;100.00
51333;BME280;37417;48.118;11.734;2023-05-24T01:16:46;95587.19;;;11.45;100.00
51333;BME280;37417;48.118;11.734;2023-05-24T01:29:03;95581.00;;;11.59;100.00
51333;BME280;37417;48.118;11.734;2023-05-24T01:31:49;95573.19;;;11.72;100.00
51333;BME280;37417;48.118;11.734;2023-05-24T01:34:35;95578.00;;;11.69;100.00
51333;BME280;37417;48.118;11.734;2023-05-24T01:37:21;95575.41;;;11.75;100.00
51333;BME280;37417;48.118;11.734;2023-05-24T01:40:07;95581.03;;;11.72;100.00
51333;BME280;37417;48.118;11.734;2023-05-24T01:43:03;95576.59;;;11.66;100.00
51333;BME280;37417;48.118;11.734;2023-05-24T01:45:59;95579.63;;;11.70;100.00
51333;BME280;37417;48.118;11.734;2023-05-24T01:48:58;95573.78;;;11.68;100.00
51333;BME280;37417;48.118;11.734;2023-05-24T01:52:02;95571.38;;;11.66;100.00
51333;BME280;37417;48.118;11.734;2023-05-24T01:54:55;95575.16;;;11.57;100.00
51333;BME280;37417;48.118;11.734;2023-05-24T01:57:43;95581.22;;;11.64;100.00
51333;BME280;37417;48.118;11.734;2023-05-24T02:00:30;95580.22;;;11.72;100.00
51333;BME280;37417;48.118;11.734;2023-05-24T02:03:16;95583.81;;;11.64;100.00
51333;BME280;37417;48.118;11.734;2023-05-24T02:06:02;95580.22;;;11.72;100.00
51333;BME280;37417;48.118;11.734;2023-05-24T02:08:48;95581.00;;;11.59;100.00
51333;BME280;37417;48.118;11.734;2023-05-24T02:11:33;95576.94;;;11.36;100.00
51333;BME280;37417;48.118;11.734;2023-05-24T02:14:19;95574.94;;;11.45;100.00
51333;BME280;37417;48.118;11.734;2023-05-24T02:17:05;95575.34;;;11.49;100.00
51333;BME280;37417;48.118;11.734;2023-05-24T02:19:51;95582.97;;;11.44;100.00
51333;BME280;37417;48.118;11.734;2023-05-24T02:22:37;95588.97;;;11.37;100.00
51333;BME280;37417;48.118;11.734;2023-05-24T02:25:23;95580.78;;;11.47;100.00
51333;BME280;37417;48.118;11.734;2023-05-24T02:28:08;95577.78;;;11.57;100.00
51333;BME280;37417;48.118;11.734;2023-05-24T02:30:54;95574.34;;;11.50;100.00
51333;BME280;37417;48.118;11.734;2023-05-24T02:33:39;95580.00;;;11.53;100.00
51333;BME280;37417;48.118;11.734;2023-05-24T02:36:25;95570.94;;;11.56;100.00
51333;BME280;37417;48.118;11.734;2023-05-24T02:39:11;95576.78;;;11.58;100.00
51333;BME280;37417;48.118;11.734;2023-05-24T02:41:57;95576.59;;;11.66;100.00
51333;BME280;37417;48.118;11.734;2023-05-24T02:44:43;95571.97;;;11.55;100.00
51333;BME280;37417;48.118;11.734;2023-05-24T02:47:32;95564.50;;;11.58;100.00
51333;BME280;37417;48.118;11.734;2023-05-24T02:50:17;95569.13;;;11.43;100.00
51333;BME280;37417;48.118;11.734;2023-05-24T02:53:03;95564.13;;;11.55;100.00
51333;BME280;37417;48.118;11.734;2023-05-24T02:55:49;95572.16;;;11.47;100.00
51333;BME280;37417;48.118;11.734;2023-05-24T02:58:35;95566.69;;;11.42;100.00
51333;BME280;37417;48.118;11.734;2023-05-24T03:01:24;95560.28;;;11.44;100.00
51333;BME280;37417;48.118;11.734;2023-05-24T03:04:10;95565.72;;;11.49;100.00
51333;BME280;37417;48.118;11.734;2023-05-24T03:06:56;95571.31;;;11.39;100.00
51333;BME280;37417;48.118;11.734;2023-05-24T03:09:41;95567.50;;;11.42;100.00
51333;BME280;37417;48.118;11.734;2023-05-24T03:12:27;95567.31;;;11.44;100.00
51333;BME280;37417;48.118;11.734;2023-05-24T03:15:13;95568.09;;;11.37;100.00
51333;BME280;37417;48.118;11.734;2023-05-24T03:17:58;95569.69;;;11.38;100.00
51333;BME280;37417;48.118;11.734;2023-05-24T03:20:44;95568.91;;;11.45;100.00
51333;BME280;37417;48.118;11.734;2023-05-24T03:23:30;95574.56;;;11.55;100.00
51333;BME280;37417;48.118;11.734;2023-05-24T03:26:16;95564.31;;;11.47;100.00
51333;BME280;37417;48.118;11.734;2023-05-24T03:29:03;95571.72;;;11.36;100.00
51333;BME280;37417;48.118;11.734;2023-05-24T03:31:48;95572.75;;;11.49;100.00
51333;BME280;37417;48.118;11.734;2023-05-24T03:34:34;95563.31;;;11.48;100.00
51333;BME280;37417;48.118;11.734;2023-05-24T03:37:20;95566.13;;;11.53;100.00
51333;BME280;37417;48.118;11.734;2023-05-24T03:40:06;95566.69;;;11.42;100.00
51333;BME280;37417;48.118;11.734;2023-05-24T03:42:52;95576.16;;;11.43;100.00
51333;BME280;37417;48.118;11.734;2023-05-24T03:45:37;95578.72;;;11.29;100.00
51333;BME280;37417;48.118;11.734;2023-05-24T03:48:23;95579.72;;;11.28;100.00
51333;BME280;37417;48.118;11.734;2023-05-24T03:51:09;95576.16;;;11.43;100.00
51333;BME280;37417;48.118;11.734;2023-05-24T03:53:57;95572.28;;;11.32;100.00
51333;BME280;37417;48.118;11.734;2023-05-24T03:56:43;95578.31;;;11.32;100.00
51333;BME280;37417;48.118;11.734;2023-05-24T03:59:29;95575.88;;;11.18;100.00
51333;BME280;37417;48.118;11.734;2023-05-24T04:02:15;95572.47;;;11.24;100.00
51333;BME280;37417;48.118;11.734;2023-05-24T04:05:00;95577.66;;;11.17;100.00
51333;BME280;37417;48.118;11.734;2023-05-24T04:07:46;95581.88;;;11.18;100.00
51333;BME280;37417;48.118;11.734;2023-05-24T04:10:32;95573.88;;;11.26;100.00
51333;BME280;37417;48.118;11.734;2023-05-24T04:13:17;95578.97;;;11.41;100.00
51333;BME280;37417;48.118;11.734;2023-05-24T04:16:03;95576.53;;;11.46;100.00
51333;BME280;37417;48.118;11.734;2023-05-24T04:18:49;95570.75;;;11.57;100.00
51333;BME280;37417;48.118;11.734;2023-05-24T04:21:36;95567.91;;;11.52;100.00
51333;BME280;37417;48.118;11.734;2023-05-24T04:24:21;95575.75;;;11.59;100.00
51333;BME280;37417;48.118;11.734;2023-05-24T04:27:08;95578.19;;;11.60;100.00
51333;BME280;37417;48.118;11.734;2023-05-24T04:29:54;95584.56;;;11.45;100.00
51333;BME280;37417;48.118;11.734;2023-05-24T04:32:40;95587.41;;;11.50;100.00
51333;BME280;37417;48.118;11.734;2023-05-24T04:35:26;95582.38;;;11.48;100.00
51333;BME280;37417;48.118;11.734;2023-05-24T04:38:11;95581.41;;;11.62;100.00
51333;BME280;37417;48.118;11.734;2023-05-24T04:40:57;95585.63;;;11.63;100.00
51333;BME280;37417;48.118;11.734;2023-05-24T04:43:46;95579.41;;;11.78;100.00
51333;BME280;37417;48.118;11.734;2023-05-24T04:46:32;95579.41;;;11.71;100.00
51333;BME280;37417;48.118;11.734;2023-05-24T04:49:20;95585.09;;;11.88;100.00
51333;BME280;37417;48.118;11.734;2023-05-24T04:52:07;95587.50;;;12.03;100.00
51333;BME280;37417;48.118;11.734;2023-05-24T04:54:52;95585.91;;;12.08;100.00
51333;BME280;37417;48.118;11.734;2023-05-24T04:57:39;95589.75;;;12.12;100.00
51333;BME280;37417;48.118;11.734;2023-05-24T05:00:25;95593.16;;;12.26;100.00
51333;BME280;37417;48.118;11.734;2023-05-24T05:03:11;95597.16;;;12.15;100.00
51333;BME280;37417;48.118;11.734;2023-05-24T05:05:57;95589.94;;;12.24;100.00
51333;BME280;37417;48.118;11.734;2023-05-24T05:08:42;95587.94;;;12.19;100.00
51333;BME280;37417;48.118;11.734;2023-05-24T05:11:28;95601.59;;;12.28;100.00
51333;BME280;37417;48.118;11.734;2023-05-24T05:14:14;95597.78;;;12.31;100.00
51333;BME280;37417;48.118;11.734;2023-05-24T05:16:59;95600.41;;;12.11;100.00
51333;BME280;37417;48.118;11.734;2023-05-24T05:19:45;95598.19;;;12.08;100.00
51333;BME280;37417;48.118;11.734;2023-05-24T05:22:30;95594.38;;;12.30;100.00
51333;BME280;37417;48.118;11.734;2023-05-24T05:25:16;95592.75;;;12.03;100.00
51333;BME280;37417;48.118;11.734;2023-05-24T05:28:02;95593.53;;;12.03;100.00
51333;BME280;37417;48.118;11.734;2023-05-24T05:30:48;95597.75;;;12.04;100.00
51333;BME280;37417;48.118;11.734;2023-05-24T05:33:33;95594.75;;;12.20;100.00
51333;BME280;37417;48.118;11.734;2023-05-24T05:36:19;95599.59;;;12.24;100.00
51333;BME280;37417;48.118;11.734;2023-05-24T05:39:08;95595.34;;;12.29;100.00
51333;BME280;37417;48.118;11.734;2023-05-24T05:41:56;95586.50;;;12.43;100.00
51333;BME280;37417;48.118;11.734;2023-05-24T05:44:42;95592.94;;;12.47;100.00
51333;BME280;37417;48.118;11.734;2023-05-24T05:47:27;95592.13;;;12.54;100.00
51333;BME280;37417;48.118;11.734;2023-05-24T05:50:13;95591.75;;;12.43;100.00
51333;BME280;37417;48.118;11.734;2023-05-24T05:52:59;95582.88;;;12.51;100.00
51333;BME280;37417;48.118;11.734;2023-05-24T05:55:44;95582.22;;;12.82;100.00
51333;BME280;37417;48.118;11.734;2023-05-24T05:58:30;95583.44;;;12.66;100.00
51333;BME280;37417;48.118;11.734;2023-05-24T06:01:16;95584.38;;;12.98;100.00
51333;BME280;37417;48.118;11.734;2023-05-24T06:04:02;95585.16;;;12.99;100.00
51333;BME280;37417;48.118;11.734;2023-05-24T06:06:47;95586.88;;;13.32;100.00
51333;BME280;37417;48.118;11.734;2023-05-24T06:09:33;95584.72;;;13.22;100.00
51333;BME280;37417;48.118;11.734;2023-05-24T06:12:19;95575.47;;;13.58;100.00
51333;BME280;37417;48.118;11.734;2023-05-24T06:15:06;95570.88;;;13.78;100.00
51333;BME280;37417;48.118;11.734;2023-05-24T06:17:52;95566.88;;;14.32;100.00
51333;BME280;37417;48.118;11.734;2023-05-24T06:20:39;95569.38;;;14.70;100.00
51333;BME280;37417;48.118;11.734;2023-05-24T06:23:25;95563.75;;;15.03;100.00
51333;BME280;37417;48.118;11.734;2023-05-24T06:26:10;95572.66;;;15.21;100.00
51333;BME280;37417;48.118;11.734;2023-05-24T06:28:56;95573.69;;;15.01;100.00
51333;BME280;37417;48.118;11.734;2023-05-24T06:31:42;95573.53;;;14.96;100.00
51333;BME280;37417;48.118;11.734;2023-05-24T06:34:28;95579.59;;;14.53;100.00
51333;BME280;37417;48.118;11.734;2023-05-24T06:37:14;95580.00;;;14.57;100.00
51333;BME280;37417;48.118;11.734;2023-05-24T06:40:00;95578.25;;;14.69;100.00
51333;BME280;37417;48.118;11.734;2023-05-24T06:42:45;95572.28;;;14.62;100.00
51333;BME280;37417;48.118;11.734;2023-05-24T06:45:31;95574.47;;;14.83;100.00
51333;BME280;37417;48.118;11.734;2023-05-24T06:48:17;95574.22;;;15.70;100.00
51333;BME280;37417;48.118;11.734;2023-05-24T06:51:02;95573.44;;;16.93;100.00
51333;BME280;37417;48.118;11.734;2023-05-24T06:53:48;95574.28;;;17.34;100.00
51333;BME280;37417;48.118;11.734;2023-05-24T06:56:34;95569.00;;;17.74;100.00
51333;BME280;37417;48.118;11.734;2023-05-24T06:59:21;95560.03;;;17.75;100.00
51333;BME280;37417;48.118;11.734;2023-05-24T07:02:07;95567.72;;;18.94;100.00
51333;BME280;37417;48.118;11.734;2023-05-24T07:04:53;95563.84;;;20.00;94.42
51333;BME280;37417;48.118;11.734;2023-05-24T07:07:40;95570.75;;;20.33;85.91
51333;BME280;37417;48.118;11.734;2023-05-24T07:10:26;95586.00;;;21.38;80.49
51333;BME280;37417;48.118;11.734;2023-05-24T07:13:12;95587.00;;;20.79;80.02
51333;BME280;37417;48.118;11.734;2023-05-24T07:15:58;95586.97;;;21.21;76.68
51333;BME280;37417;48.118;11.734;2023-05-24T07:18:43;95583.47;;;19.77;81.68
51333;BME280;37417;48.118;11.734;2023-05-24T07:21:29;95585.16;;;18.96;86.24
51333;BME280;37417;48.118;11.734;2023-05-24T07:24:15;95585.22;;;19.44;88.42
51333;BME280;37417;48.118;11.734;2023-05-24T07:27:00;95589.75;;;19.66;88.16
51333;BME280;37417;48.118;11.734;2023-05-24T07:29:46;95587.94;;;19.06;92.37
51333;BME280;37417;48.118;11.734;2023-05-24T07:32:34;95585.44;;;19.16;89.34
51333;BME280;37417;48.118;11.734;2023-05-24T07:35:20;95580.25;;;19.04;91.03
51333;BME280;37417;48.118;11.734;2023-05-24T07:38:07;95583.28;;;18.57;91.62
51333;BME280;37417;48.118;11.734;2023-05-24T07:40:53;95587.75;;;14.88;100.00
51333;BME280;37417;48.118;11.734;2023-05-24T07:43:38;95583.44;;;16.91;100.00
51333;BME280;37417;48.118;11.734;2023-05-24T07:46:24;95581.13;;;18.04;100.00
51333;BME280;37417;48.118;11.734;2023-05-24T07:49:10;95581.75;;;18.61;97.61
51333;BME280;37417;48.118;11.734;2023-05-24T07:51:55;95583.84;;;17.00;100.00
51333;BME280;37417;48.118;11.734;2023-05-24T07:54:45;95590.00;;;15.22;100.00
51333;BME280;37417;48.118;11.734;2023-05-24T07:57:31;95591.19;;;16.28;100.00
51333;BME280;37417;48.118;11.734;2023-05-24T08:00:17;95593.84;;;16.86;100.00
51333;BME280;37417;48.118;11.734;2023-05-24T08:03:04;95591.63;;;17.18;100.00
51333;BME280;37417;48.118;11.734;2023-05-24T08:05:50;95600.78;;;17.27;100.00
51333;BME280;37417;48.118;11.734;2023-05-24T08:08:37;95591.41;;;17.60;100.00
51333;BME280;37417;48.118;11.734;2023-05-24T08:11:23;95585.25;;;19.01;98.64
51333;BME280;37417;48.118;11.734;2023-05-24T08:14:09;95588.72;;;18.84;98.74
51333;BME280;37417;48.118;11.734;2023-05-24T08:16:55;95586.03;;;19.94;90.45
51333;BME280;37417;48.118;11.734;2023-05-24T08:19:41;95592.47;;;20.30;84.58
51333;BME280;37417;48.118;11.734;2023-05-24T08:22:26;95585.84;;;21.07;80.97
51333;BME280;37417;48.118;11.734;2023-05-24T08:25:12;95589.19;;;21.34;80.77
51333;BME280;37417;48.118;11.734;2023-05-24T08:27:58;95586.81;;;21.43;75.33
51333;BME280;37417;48.118;11.734;2023-05-24T08:30:43;95586.88;;;21.58;74.98
51333;BME280;37417;48.118;11.734;2023-05-24T08:33:29;95582.88;;;20.98;76.85
51333;BME280;37417;48.118;11.734;2023-05-24T08:36:16;95598.69;;;17.70;85.24
51333;BME280;37417;48.118;11.734;2023-05-24T08:39:02;95606.69;;;15.94;100.00
51333;BME280;37417;48.118;11.734;2023-05-24T08:41:49;95611.28;;;15.98;100.00
51333;BME280;37417;48.118;11.734;2023-05-24T08:44:43;95590.75;;;17.81;100.00
51333;BME280;37417;48.118;11.734;2023-05-24T08:47:31;95599.13;;;18.57;99.55
51333;BME280;37417;48.118;11.734;2023-05-24T08:50:17;95603.03;;;19.27;91.11
51333;BME280;37417;48.118;11.734;2023-05-24T08:53:05;95595.13;;;19.76;85.48
51333;BME280;37417;48.118;11.734;2023-05-24T08:55:51;95597.91;;;18.14;92.58
51333;BME280;37417;48.118;11.734;2023-05-24T08:58:38;95597.94;;;17.05;96.81
51333;BME280;37417;48.118;11.734;2023-05-24T09:01:25;95602.75;;;17.20;100.00
51333;BME280;37417;48.118;11.734;2023-05-24T09:04:11;95596.34;;;18.81;100.00
51333;BME280;37417;48.118;11.734;2023-05-24T09:06:57;95594.03;;;19.28;93.11
51333;BME280;37417;48.118;11.734;2023-05-24T09:09:49;95596.56;;;17.55;92.30
51333;BME280;37417;48.118;11.734;2023-05-24T09:12:38;95604.25;;;17.56;100.00
51333;BME280;37417;48.118;11.734;2023-05-24T09:15:25;95599.59;;;18.04;92.42
51333;BME280;37417;48.118;11.734;2023-05-24T09:18:11;95597.78;;;18.38;89.86
51333;BME280;37417;48.118;11.734;2023-05-24T09:20:56;95598.81;;;18.87;91.70
51333;BME280;37417;48.118;11.734;2023-05-24T09:23:43;95597.06;;;18.43;90.61
51333;BME280;37417;48.118;11.734;2023-05-24T09:26:29;95604.44;;;18.74;89.88
51333;BME280;37417;48.118;11.734;2023-05-24T09:29:15;95607.31;;;18.56;89.18
51333;BME280;37417;48.118;11.734;2023-05-24T09:32:00;95613.75;;;17.05;94.95
51333;BME280;37417;48.118;11.734;2023-05-24T09:34:52;95609.06;;;16.49;99.85
51333;BME280;37417;48.118;11.734;2023-05-24T09:37:38;95610.47;;;16.10;100.00
51333;BME280;37417;48.118;11.734;2023-05-24T09:40:26;95621.63;;;15.33;100.00
51333;BME280;37417;48.118;11.734;2023-05-24T09:43:11;95620.69;;;14.66;100.00
51333;BME280;37417;48.118;11.734;2023-05-24T09:45:57;95627.94;;;14.89;100.00
51333;BME280;37417;48.118;11.734;2023-05-24T09:48:54;95619.91;;;15.39;100.00
51333;BME280;37417;48.118;11.734;2023-05-24T09:51:40;95624.28;;;14.72;100.00
51333;BME280;37417;48.118;11.734;2023-05-24T09:54:26;95622.84;;;14.94;100.00
51333;BME280;37417;48.118;11.734;2023-05-24T09:57:14;95627.09;;;14.20;100.00
51333;BME280;37417;48.118;11.734;2023-05-24T10:00:05;95627.84;;;13.64;100.00
51333;BME280;37417;48.118;11.734;2023-05-24T10:03:03;95625.03;;;14.97;100.00
51333;BME280;37417;48.118;11.734;2023-05-24T10:05:51;95618.47;;;16.03;100.00
51333;BME280;37417;48.118;11.734;2023-05-24T10:08:38;95623.03;;;16.38;100.00
51333;BME280;37417;48.118;11.734;2023-05-24T10:11:24;95627.78;;;16.94;100.00
51333;BME280;37417;48.118;11.734;2023-05-24T10:14:11;95633.66;;;17.25;100.00
51333;BME280;37417;48.118;11.734;2023-05-24T10:16:57;95632.06;;;17.64;100.00
51333;BME280;37417;48.118;11.734;2023-05-24T10:19:43;95635.31;;;17.95;97.83
51333;BME280;37417;48.118;11.734;2023-05-24T10:22:29;95637.34;;;16.00;100.00
51333;BME280;37417;48.118;11.734;2023-05-24T10:25:20;95627.16;;;14.14;100.00
51333;BME280;37417;48.118;11.734;2023-05-24T10:28:09;95633.47;;;13.68;100.00
51333;BME280;37417;48.118;11.734;2023-05-24T10:31:36;95632.03;;;14.35;100.00
51333;BME280;37417;48.118;11.734;2023-05-24T10:34:23;95631.25;;;14.59;100.00
51333;BME280;37417;48.118;11.734;2023-05-24T10:37:09;95631.81;;;14.12;100.00
51333;BME280;37417;48.118;11.734;2023-05-24T10:39:55;95634.34;;;14.75;100.00
51333;BME280;37417;48.118;11.734;2023-05-24T10:42:42;95633.72;;;15.16;100.00
51333;BME280;37417;48.118;11.734;2023-05-24T10:45:29;95636.03;;;15.61;100.00
51333;BME280;37417;48.118;11.734;2023-05-24T10:51:30;95631.50;;;15.68;100.00
51333;BME280;37417;48.118;11.734;2023-05-24T10:54:18;95627.19;;;14.07;100.00
51333;BME280;37417;48.118;11.734;2023-05-24T10:57:05;95631.25;;;13.65;100.00
51333;BME280;37417;48.118;11.734;2023-05-24T10:59:52;95636.38;;;13.91;100.00
51333;BME280;37417;48.118;11.734;2023-05-24T11:02:41;95640.09;;;13.25;100.00
51333;BME280;37417;48.118;11.734;2023-05-24T11:05:53;95643.69;;;13.82;100.00
51333;BME280;37417;48.118;11.734;2023-05-24T11:08:40;95639.19;;;14.53;100.00
51333;BME280;37417;48.118;11.734;2023-05-24T11:11:28;95639.75;;;14.55;100.00
51333;BME280;37417;48.118;11.734;2023-05-24T11:14:18;95643.63;;;15.51;100.00
51333;BME280;37417;48.118;11.734;2023-05-24T11:17:05;95642.31;;;15.60;100.00
51333;BME280;37417;48.118;11.734;2023-05-24T11:19:53;95634.31;;;16.27;100.00
51333;BME280;37417;48.118;11.734;2023-05-24T11:22:39;95629.00;;;16.68;100.00
51333;BME280;37417;48.118;11.734;2023-05-24T11:25:26;95635.09;;;16.92;100.00
51333;BME280;37417;48.118;11.734;2023-05-24T11:28:12;95632.91;;;17.01;100.00
51333;BME280;37417;48.118;11.734;2023-05-24T11:31:07;95629.59;;;16.82;100.00
51333;BME280;37417;48.118;11.734;2023-05-24T11:33:52;95635.63;;;17.18;100.00
51333;BME280;37417;48.118;11.734;2023-05-24T11:36:39;95622.81;;;16.51;100.00
51333;BME280;37417;48.118;11.734;2023-05-24T11:39:30;95633.66;;;15.23;100.00
51333;BME280;37417;48.118;11.734;2023-05-24T11:42:16;95632.72;;;15.84;100.00
51333;BME280;37417;48.118;11.734;2023-05-24T11:45:03;95632.28;;;16.40;100.00
51333;BME280;37417;48.118;11.734;2023-05-24T11:47:49;95634.72;;;17.76;100.00
51333;BME280;37417;48.118;11.734;2023-05-24T11:50:41;95632.97;;;17.81;98.25
51333;BME280;37417;48.118;11.734;2023-05-24T11:53:27;95630.91;;;17.31;100.00
51333;BME280;37417;48.118;11.734;2023-05-24T11:56:13;95625.72;;;18.51;100.00
51333;BME280;37417;48.118;11.734;2023-05-24T12:04:44;95631.53;;;19.25;99.71
51333;BME280;37417;48.118;11.734;2023-05-24T12:07:31;95632.91;;;19.93;91.13
51333;BME280;37417;48.118;11.734;2023-05-24T12:10:17;95636.78;;;19.42;89.52
51333;BME280;37417;48.118;11.734;2023-05-24T12:13:03;95640.09;;;19.71;82.91
51333;BME280;37417;48.118;11.734;2023-05-24T12:15:52;95628.63;;;19.05;83.96
51333;BME280;37417;48.118;11.734;2023-05-24T12:18:38;95636.75;;;18.31;84.11
51333;BME280;37417;48.118;11.734;2023-05-24T12:21:29;95641.81;;;18.49;88.42
51333;BME280;37417;48.118;11.734;2023-05-24T12:24:17;95631.22;;;18.66;88.11
51333;BME280;37417;48.118;11.734;2023-05-24T12:27:06;95636.38;;;18.73;82.23
51333;BME280;37417;48.118;11.734;2023-05-24T12:29:52;95631.22;;;18.32;85.41
51333;BME280;37417;48.118;11.734;2023-05-24T12:32:39;95636.91;;;18.58;88.16
51333;BME280;37417;48.118;11.734;2023-05-24T12:35:25;95635.06;;;18.41;86.06
51333;BME280;37417;48.118;11.734;2023-05-24T12:38:10;95639.44;;;18.19;86.75
51333;BME280;37417;48.118;11.734;2023-05-24T12:40:56;95635.00;;;16.10;92.33
51333;BME280;37417;48.118;11.734;2023-05-24T12:43:42;95636.09;;;14.62;100.00
51333;BME280;37417;48.118;11.734;2023-05-24T12:46:28;95638.47;;;15.07;100.00
51333;BME280;37417;48.118;11.734;2023-05-24T12:49:15;95646.53;;;14.87;100.00
51333;BME280;37417;48.118;11.734;2023-05-24T12:52:01;95640.97;;;15.21;100.00
51333;BME280;37417;48.118;11.734;2023-05-24T12:54:46;95644.53;;;15.93;99.01
51333;BME280;37417;48.118;11.734;2023-05-24T12:57:32;95649.97;;;15.80;96.59
51333;BME280;37417;48.118;11.734;2023-05-24T13:00:19;95640.50;;;16.20;98.73
51333;BME280;37417;48.118;11.734;2023-05-24T13:03:05;95640.97;;;17.46;91.53
51333;BME280;37417;48.118;11.734;2023-05-24T13:05:51;95640.13;;;17.57;91.41
51333;BME280;37417;48.118;11.734;2023-05-24T13:08:37;95626.06;;;18.09;83.63
51333;BME280;37417;48.118;11.734;2023-05-24T13:11:22;95616.91;;;18.79;80.42
51333;BME280;37417;48.118;11.734;2023-05-24T13:14:09;95616.97;;;19.01;76.53
51333;BME280;37417;48.118;11.734;2023-05-24T13:16:55;95612.44;;;19.40;74.10
51333;BME280;37417;48.118;11.734;2023-05-24T13:19:41;95619.88;;;17.86;82.29
51333;BME280;37417;48.118;11.734;2023-05-24T13:22:27;95618.66;;;20.59;76.71
51333;BME280;37417;48.118;11.734;2023-05-24T13:25:13;95620.25;;;21.39;68.87
51333;BME280;37417;48.118;11.734;2023-05-24T13:27:58;95616.38;;;20.40;64.54
51333;BME280;37417;48.118;11.734;2023-05-24T13:30:46;95626.25;;;17.22;76.70
51333;BME280;37417;48.118;11.734;2023-05-24T13:33:31;95625.59;;;15.54;82.82
51333;BME280;37417;48.118;11.734;2023-05-24T13:36:17;95621.53;;;17.24;84.28
51333;BME280;37417;48.118;11.734;2023-05-24T13:39:03;95626.44;;;17.84;81.02
51333;BME280;37417;48.118;11.734;2023-05-24T13:41:48;95619.69;;;18.38;79.64
51333;BME280;37417;48.118;11.734;2023-05-24T13:44:34;95623.13;;;18.22;81.80
51333;BME280;37417;48.118;11.734;2023-05-24T13:47:20;95622.53;;;18.82;76.12
51333;BME280;37417;48.118;11.734;2023-05-24T13:50:06;95626.50;;;18.34;75.67
51333;BME280;37417;48.118;11.734;2023-05-24T13:52:51;95626.88;;;17.81;74.85
51333;BME280;37417;48.118;11.734;2023-05-24T13:55:37;95635.28;;;16.02;81.14
51333;BME280;37417;48.118;11.734;2023-05-24T13:58:23;95629.19;;;16.32;87.81
51333;BME280;37417;48.118;11.734;2023-05-24T14:01:09;95629.44;;;16.65;87.26
51333;BME280;37417;48.118;11.734;2023-05-24T14:03:55;95634.19;;;16.21;83.23
51333;BME280;37417;48.118;11.734;2023-05-24T14:06:41;95644.66;;;16.40;91.11
51333;BME280;37417;48.118;11.734;2023-05-24T14:09:26;95634.94;;;16.52;89.52
51333;BME280;37417;48.118;11.734;2023-05-24T14:12:12;95633.66;;;16.31;87.46
51333;BME280;37417;48.118;11.734;2023-05-24T14:14:58;95628.75;;;15.63;87.24
51333;BME280;37417;48.118;11.734;2023-05-24T14:17:44;95636.19;;;14.49;92.35
51333;BME280;37417;48.118;11.734;2023-05-24T14:20:30;95638.06;;;13.79;97.79
51333;BME280;37417;48.118;11.734;2023-05-24T14:23:17;95635.09;;;14.00;99.79
51333;BME280;37417;48.118;11.734;2023-05-24T14:26:02;95636.78;;;14.20;98.42
51333;BME280;37417;48.118;11.734;2023-05-24T14:28:48;95636.72;;;14.01;98.67
51333;BME280;37417;48.118;11.734;2023-05-24T14:31:34;95633.16;;;14.21;98.62
51333;BME280;37417;48.118;11.734;2023-05-24T14:34:26;95636.19;;;14.49;96.19
51333;BME280;37417;48.118;11.734;2023-05-24T14:37:12;95636.03;;;14.13;97.31
51333;BME280;37417;48.118;11.734;2023-05-24T14:39:57;95642.22;;;13.93;97.57
51333;BME280;37417;48.118;11.734;2023-05-24T14:42:43;95643.78;;;14.57;98.96
51333;BME280;37417;48.118;11.734;2023-05-24T14:45:29;95640.00;;;14.97;98.13
51333;BME280;37417;48.118;11.734;2023-05-24T14:48:14;95632.84;;;15.04;93.48